Time;durP1;ratioP1;P1;durP2;ratioP2;P2;SDS_P1;SDS_P2;PMS_P1;PMS_P2;Temp;Humidity;BMP_temperature;BMP_pressure;BME280_temperature;BME280_humidity;BME280_pressure;Samples;Min_cycle;Max_cycle;Signal;HPM_P1;HPM_P2
2023/11/28 00:00:13;;;;;;;7.77;3.93;;;;;;;;;;5072673;28;20065;-86
2023/11/28 00:02:39;;;;;;;5.80;2.90;;;;;;;;;;5072692;28;20035;-87
2023/11/28 00:05:04;;;;;;;8.50;4.00;;;;;;;;;;5073952;28;20173;-87
2023/11/28 00:07:32;;;;;;;8.70;4.17;;;;;;;;;;5072603;28;20024;-87
2023/11/28 00:09:58;;;;;;;8.17;4.13;;;;;;;;;;5072566;28;20107;-87
2023/11/28 00:12:24;;;;;;;6.40;3.50;;;;;;;;;;5072422;28;20113;-87
2023/11/28 00:14:49;;;;;;;9.13;4.20;;;;;;;;;;5073759;28;20025;-87
2023/11/28 00:17:14;;;;;;;6.67;3.37;;;;;;;;;;5072515;28;20027;-86
2023/11/28 00:19:40;;;;;;;8.73;3.97;;;;;;;;;;5072288;28;20111;-86
2023/11/28 00:22:05;;;;;;;6.90;3.30;;;;;;;;;;5072085;28;20016;-86
2023/11/28 00:24:30;;;;;;;9.67;4.70;;;;;;;;;;5072383;28;20077;-86
2023/11/28 00:26:55;;;;;;;8.30;4.07;;;;;;;;;;5072167;28;20025;-86
2023/11/28 00:29:21;;;;;;;14.30;3.93;;;;;;;;;;5071962;28;20107;-86
2023/11/28 00:31:46;;;;;;;8.87;4.53;;;;;;;;;;5072296;28;20029;-87
2023/11/28 00:34:11;;;;;;;8.17;4.47;;;;;;;;;;5072230;28;20052;-86
2023/11/28 00:36:37;;;;;;;8.90;4.00;;;;;;;;;;5072221;28;20028;-86
2023/11/28 00:39:03;;;;;;;8.80;4.50;;;;;;;;;;5072156;28;20020;-86
2023/11/28 00:41:28;;;;;;;8.13;4.20;;;;;;;;;;5072074;28;20031;-87
2023/11/28 00:43:55;;;;;;;8.73;4.83;;;;;;;;;;5072223;28;20460;-86
2023/11/28 00:46:21;;;;;;;7.27;4.07;;;;;;;;;;5072168;28;20013;-86
2023/11/28 00:48:47;;;;;;;8.30;4.47;;;;;;;;;;5072072;28;20074;-87
2023/11/28 00:51:14;;;;;;;8.47;4.60;;;;;;;;;;5072073;28;20052;-86
2023/11/28 00:53:39;;;;;;;7.47;3.90;;;;;;;;;;5072141;28;20364;-87
2023/11/28 00:56:05;;;;;;;7.13;3.73;;;;;;;;;;5071952;28;20024;-86
2023/11/28 00:58:30;;;;;;;6.93;3.60;;;;;;;;;;5071872;28;20024;-86
2023/11/28 01:00:55;;;;;;;9.90;5.07;;;;;;;;;;5071754;28;20073;-87
2023/11/28 01:03:21;;;;;;;8.63;4.43;;;;;;;;;;5072100;28;20013;-87
2023/11/28 01:05:46;;;;;;;6.70;3.70;;;;;;;;;;5071947;28;20378;-86
2023/11/28 01:08:11;;;;;;;8.40;3.90;;;;;;;;;;5072421;28;20079;-86
2023/11/28 01:10:37;;;;;;;7.27;4.00;;;;;;;;;;5071848;28;20024;-86
2023/11/28 01:13:02;;;;;;;7.73;4.00;;;;;;;;;;5072007;28;20071;-87
2023/11/28 01:15:27;;;;;;;7.67;3.57;;;;;;;;;;5071780;28;20024;-86
2023/11/28 01:17:52;;;;;;;7.53;4.47;;;;;;;;;;5071925;28;20337;-86
2023/11/28 01:20:18;;;;;;;8.00;4.17;;;;;;;;;;5071604;28;20025;-86
2023/11/28 01:22:43;;;;;;;4.63;2.77;;;;;;;;;;5072978;28;20367;-87
2023/11/28 01:25:08;;;;;;;8.10;4.47;;;;;;;;;;5071725;28;20017;-86
2023/11/28 01:27:34;;;;;;;7.43;4.00;;;;;;;;;;5071770;28;20017;-86
2023/11/28 01:29:59;;;;;;;6.73;3.63;;;;;;;;;;5071539;28;20082;-86
2023/11/28 01:32:24;;;;;;;7.27;3.83;;;;;;;;;;5071583;28;20211;-86
2023/11/28 01:34:49;;;;;;;6.77;3.60;;;;;;;;;;5073111;28;20020;-86
2023/11/28 01:37:18;;;;;;;7.87;3.80;;;;;;;;;;5076725;28;20103;-86
2023/11/28 01:39:43;;;;;;;6.40;3.67;;;;;;;;;;5075210;28;20396;-86
2023/11/28 01:42:08;;;;;;;6.13;3.10;;;;;;;;;;5075518;28;20044;-86
2023/11/28 01:44:33;;;;;;;6.27;3.40;;;;;;;;;;5076534;28;20132;-87
2023/11/28 01:46:59;;;;;;;6.47;4.00;;;;;;;;;;5075481;28;20032;-86
2023/11/28 01:49:24;;;;;;;4.90;2.63;;;;;;;;;;5075185;28;20024;-86
2023/11/28 01:51:50;;;;;;;5.60;2.87;;;;;;;;;;5075442;28;20025;-86
2023/11/28 01:54:15;;;;;;;6.07;3.23;;;;;;;;;;5075160;28;20025;-87
2023/11/28 01:56:41;;;;;;;4.73;2.83;;;;;;;;;;5075224;28;20355;-86
2023/11/28 01:59:07;;;;;;;4.37;2.60;;;;;;;;;;5074704;28;20025;-87
2023/11/28 02:01:32;;;;;;;4.63;2.70;;;;;;;;;;5075018;28;20090;-87
2023/11/28 02:03:57;;;;;;;5.00;3.07;;;;;;;;;;5075031;28;20021;-86
2023/11/28 02:06:23;;;;;;;5.47;3.27;;;;;;;;;;5076362;28;20016;-87
2023/11/28 02:08:48;;;;;;;4.43;2.73;;;;;;;;;;5074912;28;20028;-86
2023/11/28 02:11:13;;;;;;;5.00;2.60;;;;;;;;;;5075061;28;20377;-87
2023/11/28 02:13:39;;;;;;;5.43;3.07;;;;;;;;;;5074837;28;20174;-87
2023/11/28 02:16:11;;;;;;;5.83;3.60;;;;;;;;;;5076114;28;20032;-86
2023/11/28 02:18:36;;;;;;;5.73;3.43;;;;;;;;;;5074684;28;20032;-86
2023/11/28 02:21:02;;;;;;;6.40;3.70;;;;;;;;;;5074619;28;20104;-87
2023/11/28 02:23:27;;;;;;;5.97;3.47;;;;;;;;;;5075980;28;20028;-86
2023/11/28 02:25:56;;;;;;;7.43;4.23;;;;;;;;;;5074675;28;20398;-86
2023/11/28 02:28:23;;;;;;;6.63;3.73;;;;;;;;;;5074553;28;20024;-87
2023/11/28 02:30:48;;;;;;;5.47;3.73;;;;;;;;;;5074272;28;20119;-86
2023/11/28 02:33:14;;;;;;;7.63;4.43;;;;;;;;;;5074412;28;20063;-87
2023/11/28 02:35:39;;;;;;;6.87;3.40;;;;;;;;;;5075805;28;20331;-87
2023/11/28 02:38:04;;;;;;;7.03;4.30;;;;;;;;;;5074387;28;20067;-86
2023/11/28 02:40:29;;;;;;;6.33;3.63;;;;;;;;;;5074485;28;20016;-87
2023/11/28 02:42:55;;;;;;;5.97;3.43;;;;;;;;;;5074444;28;20029;-87
2023/11/28 02:45:20;;;;;;;7.67;3.43;;;;;;;;;;5074117;28;20021;-86
2023/11/28 02:47:45;;;;;;;7.93;3.67;;;;;;;;;;5075561;28;20111;-87
2023/11/28 02:50:10;;;;;;;6.33;3.20;;;;;;;;;;5074295;28;20456;-87
2023/11/28 02:52:38;;;;;;;6.07;3.33;;;;;;;;;;5074253;28;20400;-87
2023/11/28 02:55:03;;;;;;;6.67;3.53;;;;;;;;;;5075175;28;20029;-87
2023/11/28 02:57:28;;;;;;;6.63;3.67;;;;;;;;;;5074245;28;20483;-86
2023/11/28 02:59:53;;;;;;;7.73;3.77;;;;;;;;;;5074186;28;20028;-86
2023/11/28 03:02:19;;;;;;;4.47;3.03;;;;;;;;;;5073969;28;20032;-87
2023/11/28 03:04:44;;;;;;;6.73;3.83;;;;;;;;;;5073715;28;20489;-87
2023/11/28 03:07:09;;;;;;;5.70;3.53;;;;;;;;;;5073745;28;20023;-87
2023/11/28 03:09:34;;;;;;;7.17;3.90;;;;;;;;;;5073943;28;20337;-86
2023/11/28 03:12:00;;;;;;;5.53;3.00;;;;;;;;;;5073873;28;20537;-86
2023/11/28 03:14:26;;;;;;;6.53;3.50;;;;;;;;;;5073633;28;20036;-87
2023/11/28 03:16:51;;;;;;;5.03;2.80;;;;;;;;;;5073673;28;20491;-86
2023/11/28 03:19:16;;;;;;;6.27;2.67;;;;;;;;;;5073560;28;20017;-87
2023/11/28 03:21:42;;;;;;;6.87;4.20;;;;;;;;;;5073833;28;20207;-87
2023/11/28 03:24:07;;;;;;;6.63;3.60;;;;;;;;;;5074709;28;20083;-86
2023/11/28 03:26:33;;;;;;;6.07;3.37;;;;;;;;;;5073616;28;20437;-87
2023/11/28 03:28:58;;;;;;;7.27;4.23;;;;;;;;;;5073665;28;20027;-87
2023/11/28 03:31:23;;;;;;;7.33;3.90;;;;;;;;;;5073469;28;20149;-87
2023/11/28 03:33:48;;;;;;;7.70;3.83;;;;;;;;;;5073327;28;20027;-87
2023/11/28 03:36:17;;;;;;;6.07;3.63;;;;;;;;;;5074748;28;20035;-87
2023/11/28 03:38:43;;;;;;;5.30;2.80;;;;;;;;;;5073193;28;20055;-87
2023/11/28 03:41:11;;;;;;;4.33;2.20;;;;;;;;;;5073204;28;20023;-87
2023/11/28 03:43:36;;;;;;;4.33;2.33;;;;;;;;;;5072994;28;20051;-87
2023/11/28 03:46:02;;;;;;;6.37;4.10;;;;;;;;;;5073215;28;20021;-87
2023/11/28 03:48:27;;;;;;;8.23;3.67;;;;;;;;;;5072959;28;20027;-87
2023/11/28 03:50:53;;;;;;;6.30;3.70;;;;;;;;;;5073055;28;20020;-87
2023/11/28 03:53:18;;;;;;;4.57;2.23;;;;;;;;;;5072821;28;20471;-87
2023/11/28 03:55:44;;;;;;;6.20;3.77;;;;;;;;;;5072869;28;20016;-87
2023/11/28 03:58:09;;;;;;;6.67;3.83;;;;;;;;;;5072227;28;20025;-86
2023/11/28 04:00:34;;;;;;;5.30;3.47;;;;;;;;;;5073045;28;20028;-87
2023/11/28 04:03:00;;;;;;;6.03;2.97;;;;;;;;;;5072604;28;20025;-87
2023/11/28 04:05:25;;;;;;;6.57;2.77;;;;;;;;;;5073843;28;20044;-86
2023/11/28 04:07:50;;;;;;;6.50;3.47;;;;;;;;;;5074010;28;20016;-87
2023/11/28 04:10:15;;;;;;;6.17;3.57;;;;;;;;;;5073852;28;20016;-87
2023/11/28 04:12:40;;;;;;;5.93;3.80;;;;;;;;;;5072541;28;20020;-86
2023/11/28 04:15:06;;;;;;;6.13;3.03;;;;;;;;;;5072286;28;20028;-86
2023/11/28 04:17:31;;;;;;;6.13;3.37;;;;;;;;;;5072408;28;20025;-87
2023/11/28 04:19:57;;;;;;;6.53;3.70;;;;;;;;;;5069366;28;20041;-86
2023/11/28 04:22:22;;;;;;;10.17;6.00;;;;;;;;;;5052375;28;20037;-86
2023/11/28 04:24:47;;;;;;;8.57;5.20;;;;;;;;;;5066649;28;20017;-86
2023/11/28 04:27:12;;;;;;;9.67;5.10;;;;;;;;;;5072435;28;20016;-86
2023/11/28 04:29:38;;;;;;;10.00;5.27;;;;;;;;;;5073514;28;20020;-86
2023/11/28 04:32:03;;;;;;;5.97;2.80;;;;;;;;;;5072473;28;20034;-87
2023/11/28 04:34:28;;;;;;;10.13;5.37;;;;;;;;;;5072191;28;20103;-86
2023/11/28 04:36:53;;;;;;;8.23;5.10;;;;;;;;;;5072190;28;20036;-86
2023/11/28 04:39:19;;;;;;;8.30;5.00;;;;;;;;;;5072037;28;20119;-86
2023/11/28 04:41:44;;;;;;;8.37;4.93;;;;;;;;;;5072179;28;20020;-86
2023/11/28 04:44:09;;;;;;;9.63;4.93;;;;;;;;;;5071990;28;20039;-87
2023/11/28 04:46:35;;;;;;;9.00;4.80;;;;;;;;;;5072253;28;20460;-86
2023/11/28 04:49:00;;;;;;;7.83;4.37;;;;;;;;;;5072189;28;20070;-87
2023/11/28 04:51:25;;;;;;;9.67;5.87;;;;;;;;;;5072126;28;20017;-86
2023/11/28 04:53:51;;;;;;;8.30;4.73;;;;;;;;;;5071886;28;20123;-86
2023/11/28 04:56:16;;;;;;;8.67;5.23;;;;;;;;;;5072157;28;20024;-86
2023/11/28 04:58:42;;;;;;;9.90;4.73;;;;;;;;;;5071956;28;20020;-86
2023/11/28 05:01:07;;;;;;;9.00;4.37;;;;;;;;;;5072084;28;20088;-87
2023/11/28 05:03:33;;;;;;;8.27;5.00;;;;;;;;;;5072305;28;20048;-86
2023/11/28 05:05:58;;;;;;;8.33;4.43;;;;;;;;;;5071852;28;20028;-86
2023/11/28 05:08:24;;;;;;;11.20;5.23;;;;;;;;;;5072066;28;20515;-87
2023/11/28 05:10:49;;;;;;;6.93;3.77;;;;;;;;;;5075295;28;20445;-87
2023/11/28 05:13:14;;;;;;;7.13;3.60;;;;;;;;;;5075890;28;20059;-87
2023/11/28 05:15:40;;;;;;;6.87;3.73;;;;;;;;;;5075911;28;20426;-87
2023/11/28 05:18:05;;;;;;;9.17;4.50;;;;;;;;;;5075873;28;20029;-87
2023/11/28 05:20:31;;;;;;;8.30;4.33;;;;;;;;;;5068231;28;20358;-86
2023/11/28 05:22:56;;;;;;;8.73;4.70;;;;;;;;;;5055813;28;20113;-86
2023/11/28 05:25:21;;;;;;;9.40;5.13;;;;;;;;;;5073494;28;20025;-86
2023/11/28 05:27:46;;;;;;;8.50;4.73;;;;;;;;;;5075641;28;20047;-86
2023/11/28 05:30:12;;;;;;;8.23;3.53;;;;;;;;;;5075700;28;20028;-87
2023/11/28 05:32:37;;;;;;;9.60;4.90;;;;;;;;;;5075657;28;20012;-87
2023/11/28 05:35:03;;;;;;;9.00;5.13;;;;;;;;;;5075608;28;20020;-86
2023/11/28 05:37:29;;;;;;;9.63;5.20;;;;;;;;;;5075655;28;20013;-86
2023/11/28 05:39:55;;;;;;;10.60;4.80;;;;;;;;;;5075585;28;20039;-86
2023/11/28 05:42:20;;;;;;;8.43;3.43;;;;;;;;;;5076903;28;20367;-86
2023/11/28 05:44:45;;;;;;;8.07;3.70;;;;;;;;;;5075117;28;20141;-86
2023/11/28 05:47:10;;;;;;;8.10;4.07;;;;;;;;;;5075514;28;20017;-86
2023/11/28 05:49:35;;;;;;;3.53;1.50;;;;;;;;;;5075244;28;20403;-87
2023/11/28 05:52:01;;;;;;;7.33;3.27;;;;;;;;;;5076617;28;20070;-87
2023/11/28 05:54:28;;;;;;;7.07;3.33;;;;;;;;;;5075109;28;20028;-86
2023/11/28 05:56:53;;;;;;;6.77;3.27;;;;;;;;;;5075350;28;20464;-86
2023/11/28 05:59:19;;;;;;;7.73;4.40;;;;;;;;;;5074935;28;20111;-86
2023/11/28 06:02:16;;;;;;;8.77;4.17;;;;;;;;;;5075111;28;20026;-86
2023/11/28 06:04:42;;;;;;;8.20;4.37;;;;;;;;;;5063546;28;20037;-86
2023/11/28 06:07:07;;;;;;;7.73;3.53;;;;;;;;;;5074883;28;20171;-86
2023/11/28 06:09:32;;;;;;;7.97;4.90;;;;;;;;;;5074984;28;20024;-86
2023/11/28 06:11:58;;;;;;;10.27;4.73;;;;;;;;;;5074998;28;20340;-86
2023/11/28 06:14:23;;;;;;;8.23;4.03;;;;;;;;;;5074518;28;20353;-85
2023/11/28 06:16:48;;;;;;;7.50;4.03;;;;;;;;;;5074686;28;20107;-86
2023/11/28 06:19:14;;;;;;;8.17;4.73;;;;;;;;;;5074931;28;20529;-86
2023/11/28 06:21:39;;;;;;;11.63;5.47;;;;;;;;;;5074306;28;20039;-87
2023/11/28 06:24:05;;;;;;;8.00;3.80;;;;;;;;;;5074912;28;20043;-86
2023/11/28 06:26:31;;;;;;;8.17;4.23;;;;;;;;;;5074523;28;20044;-86
2023/11/28 06:28:56;;;;;;;7.70;4.40;;;;;;;;;;5074618;28;20020;-86
2023/11/28 06:31:21;;;;;;;9.00;5.17;;;;;;;;;;5074362;28;20029;-86
2023/11/28 06:33:46;;;;;;;8.47;4.07;;;;;;;;;;5074442;28;20028;-86
2023/11/28 06:36:12;;;;;;;9.20;4.63;;;;;;;;;;5074475;28;20360;-86
2023/11/28 06:38:37;;;;;;;8.20;4.23;;;;;;;;;;5074127;28;20025;-86
2023/11/28 06:41:02;;;;;;;4.27;2.30;;;;;;;;;;5074419;28;20035;-87
2023/11/28 06:43:27;;;;;;;6.57;3.83;;;;;;;;;;5074418;28;20435;-86
2023/11/28 06:45:58;;;;;;;7.83;3.77;;;;;;;;;;5074456;28;20463;-86
2023/11/28 06:48:24;;;;;;;4.13;2.60;;;;;;;;;;5074150;28;20028;-86
2023/11/28 06:50:49;;;;;;;10.03;3.90;;;;;;;;;;5074274;28;20027;-86
2023/11/28 06:53:14;;;;;;;6.00;3.30;;;;;;;;;;5073628;28;20032;-86
2023/11/28 06:55:39;;;;;;;4.70;2.90;;;;;;;;;;5074981;28;20088;-85
2023/11/28 06:58:05;;;;;;;3.90;2.17;;;;;;;;;;5075000;28;20051;-86
2023/11/28 07:00:30;;;;;;;6.70;3.23;;;;;;;;;;5073995;28;20110;-85
2023/11/28 07:02:56;;;;;;;3.80;2.00;;;;;;;;;;5073114;28;20017;-84
2023/11/28 07:05:22;;;;;;;3.87;2.13;;;;;;;;;;5091806;28;20020;-84
2023/11/28 07:07:47;;;;;;;3.63;1.90;;;;;;;;;;5072727;28;20329;-85
2023/11/28 07:10:12;;;;;;;4.30;1.73;;;;;;;;;;5072663;28;20036;-84
2023/11/28 07:12:38;;;;;;;4.23;1.93;;;;;;;;;;5073029;28;20524;-85
2023/11/28 07:15:04;;;;;;;3.53;1.63;;;;;;;;;;5072835;28;20036;-84
2023/11/28 07:17:29;;;;;;;3.73;1.90;;;;;;;;;;5072899;28;20023;-84
2023/11/28 07:19:54;;;;;;;4.13;2.00;;;;;;;;;;5072857;28;20115;-84
2023/11/28 07:22:20;;;;;;;4.70;2.30;;;;;;;;;;5072664;28;20020;-84
2023/11/28 07:24:47;;;;;;;4.20;2.00;;;;;;;;;;5073113;28;20016;-84
2023/11/28 07:27:12;;;;;;;4.43;2.27;;;;;;;;;;5073395;28;20468;-84
2023/11/28 07:29:37;;;;;;;4.63;2.20;;;;;;;;;;5074373;28;20066;-85
2023/11/28 07:32:03;;;;;;;4.40;1.80;;;;;;;;;;5071994;28;20033;-85
2023/11/28 07:34:28;;;;;;;4.20;1.77;;;;;;;;;;5072969;28;20448;-84
2023/11/28 07:36:53;;;;;;;4.60;1.73;;;;;;;;;;5072954;28;20115;-84
2023/11/28 07:39:19;;;;;;;4.77;1.80;;;;;;;;;;5072821;28;20028;-84
2023/11/28 07:41:44;;;;;;;2.60;1.40;;;;;;;;;;5072464;28;20032;-84
2023/11/28 07:44:09;;;;;;;3.97;2.03;;;;;;;;;;5072623;28;20112;-83
2023/11/28 07:46:34;;;;;;;3.77;1.80;;;;;;;;;;5072608;28;20047;-84
2023/11/28 07:48:59;;;;;;;3.17;1.70;;;;;;;;;;5072817;28;20020;-84
2023/11/28 07:51:25;;;;;;;3.77;1.80;;;;;;;;;;5072503;28;20020;-84
2023/11/28 07:53:50;;;;;;;4.93;1.77;;;;;;;;;;5072567;28;20017;-84
2023/11/28 07:56:17;;;;;;;3.37;1.60;;;;;;;;;;5072497;28;20020;-83
2023/11/28 07:58:42;;;;;;;3.37;1.73;;;;;;;;;;5072402;28;20104;-84
2023/11/28 08:01:07;;;;;;;5.67;1.57;;;;;;;;;;5072124;28;20087;-84
2023/11/28 08:03:33;;;;;;;3.53;1.60;;;;;;;;;;5072380;28;20020;-83
2023/11/28 08:05:58;;;;;;;3.57;1.67;;;;;;;;;;5072221;28;20021;-84
2023/11/28 08:08:23;;;;;;;7.33;2.63;;;;;;;;;;5072225;28;20029;-84
2023/11/28 08:10:49;;;;;;;4.07;1.70;;;;;;;;;;5072359;28;20028;-84
2023/11/28 08:13:15;;;;;;;5.13;1.87;;;;;;;;;;5072145;28;20138;-84
2023/11/28 08:15:41;;;;;;;3.33;1.87;;;;;;;;;;5072088;28;20032;-84
2023/11/28 08:18:07;;;;;;;3.77;2.13;;;;;;;;;;5072012;28;20040;-84
2023/11/28 08:20:33;;;;;;;4.50;1.90;;;;;;;;;;5072106;28;20060;-84
2023/11/28 08:22:58;;;;;;;4.10;1.97;;;;;;;;;;5072148;28;20451;-84
2023/11/28 08:25:24;;;;;;;4.53;2.27;;;;;;;;;;5072149;28;20356;-84
2023/11/28 08:27:49;;;;;;;7.00;2.40;;;;;;;;;;5073090;28;20020;-84
2023/11/28 08:30:15;;;;;;;2.60;1.47;;;;;;;;;;5072018;28;20052;-84
2023/11/28 08:32:41;;;;;;;3.57;2.03;;;;;;;;;;5072076;28;20030;-84
2023/11/28 08:35:06;;;;;;;5.60;2.37;;;;;;;;;;5071974;28;20116;-84
2023/11/28 08:37:31;;;;;;;2.93;1.57;;;;;;;;;;5071682;28;20025;-84
2023/11/28 08:39:57;;;;;;;3.43;1.57;;;;;;;;;;5071862;28;20029;-85
2023/11/28 08:42:22;;;;;;;5.30;2.10;;;;;;;;;;5073194;28;20017;-84
2023/11/28 08:44:47;;;;;;;3.73;1.80;;;;;;;;;;5071934;28;20027;-84
2023/11/28 08:47:12;;;;;;;4.00;1.47;;;;;;;;;;5071736;28;20459;-84
2023/11/28 08:49:37;;;;;;;3.67;1.43;;;;;;;;;;5071821;28;20426;-84
2023/11/28 08:52:03;;;;;;;4.87;2.07;;;;;;;;;;5071924;28;20107;-84
2023/11/28 08:54:29;;;;;;;4.97;2.00;;;;;;;;;;5071813;28;20028;-84
2023/11/28 08:56:55;;;;;;;4.13;1.90;;;;;;;;;;5071349;28;20028;-84
2023/11/28 08:59:20;;;;;;;3.80;1.90;;;;;;;;;;5071234;28;20105;-84
2023/11/28 09:01:46;;;;;;;3.10;1.60;;;;;;;;;;5071511;28;20025;-83
2023/11/28 09:04:11;;;;;;;5.53;1.90;;;;;;;;;;5071374;28;20031;-83
2023/11/28 09:06:36;;;;;;;2.57;1.37;;;;;;;;;;5071277;28;20452;-83
2023/11/28 09:09:02;;;;;;;6.60;1.97;;;;;;;;;;5072635;28;20055;-84
2023/11/28 09:11:27;;;;;;;5.07;1.83;;;;;;;;;;5070984;28;20024;-84
2023/11/28 09:13:52;;;;;;;4.23;1.80;;;;;;;;;;5071019;28;20107;-84
2023/11/28 09:16:17;;;;;;;4.20;1.83;;;;;;;;;;5072500;28;20031;-85
2023/11/28 09:18:43;;;;;;;3.70;1.53;;;;;;;;;;5071016;28;20040;-84
2023/11/28 09:21:08;;;;;;;2.17;1.20;;;;;;;;;;5059359;28;20017;-84
2023/11/28 09:23:34;;;;;;;4.03;1.80;;;;;;;;;;5067673;28;20021;-84
2023/11/28 09:25:59;;;;;;;3.50;1.50;;;;;;;;;;5070830;28;20097;-85
2023/11/28 09:28:25;;;;;;;2.70;1.37;;;;;;;;;;5072408;28;20049;-85
2023/11/28 09:30:50;;;;;;;4.57;2.07;;;;;;;;;;5071104;28;20025;-84
2023/11/28 09:33:15;;;;;;;3.83;1.80;;;;;;;;;;5070956;28;20024;-85
2023/11/28 09:35:41;;;;;;;4.77;1.77;;;;;;;;;;5070842;28;20060;-84
2023/11/28 09:38:07;;;;;;;12.00;2.23;;;;;;;;;;5070854;28;20032;-84
2023/11/28 09:40:32;;;;;;;5.43;2.20;;;;;;;;;;5071088;28;20431;-84
2023/11/28 09:42:57;;;;;;;3.13;1.57;;;;;;;;;;5070966;28;20052;-84
2023/11/28 09:45:23;;;;;;;4.03;2.33;;;;;;;;;;5070809;28;20031;-84
2023/11/28 09:47:48;;;;;;;4.23;1.77;;;;;;;;;;5070751;28;20409;-85
2023/11/28 09:50:14;;;;;;;5.07;2.43;;;;;;;;;;5071088;28;20035;-85
2023/11/28 09:52:44;;;;;;;4.80;1.70;;;;;;;;;;5070721;28;20025;-85
2023/11/28 09:55:10;;;;;;;3.10;1.77;;;;;;;;;;5070896;28;20082;-84
2023/11/28 09:57:37;;;;;;;3.60;1.80;;;;;;;;;;5074603;28;20035;-84
2023/11/28 10:00:04;;;;;;;4.23;1.87;;;;;;;;;;5074337;28;20067;-84
2023/11/28 10:02:31;;;;;;;4.33;1.70;;;;;;;;;;5074237;28;20058;-85
2023/11/28 10:04:56;;;;;;;3.97;1.83;;;;;;;;;;5074361;28;20025;-84
2023/11/28 10:07:25;;;;;;;2.93;1.43;;;;;;;;;;5074411;28;20020;-84
2023/11/28 10:09:51;;;;;;;4.13;1.57;;;;;;;;;;5075636;28;20478;-84
2023/11/28 10:12:16;;;;;;;4.67;1.40;;;;;;;;;;5073485;28;20111;-84
2023/11/28 10:14:44;;;;;;;2.33;1.20;;;;;;;;;;5072614;28;20029;-83
2023/11/28 10:17:09;;;;;;;5.97;1.83;;;;;;;;;;5073202;28;20115;-84
2023/11/28 10:19:34;;;;;;;2.60;1.70;;;;;;;;;;5073688;28;20115;-84
2023/11/28 10:22:04;;;;;;;2.90;1.57;;;;;;;;;;5070788;28;20047;-85
2023/11/28 10:24:29;;;;;;;2.20;1.10;;;;;;;;;;5075143;28;20486;-84
2023/11/28 10:26:55;;;;;;;2.20;1.10;;;;;;;;;;5073650;28;20040;-85
2023/11/28 10:29:21;;;;;;;4.57;1.70;;;;;;;;;;5075093;28;20444;-84
2023/11/28 10:31:46;;;;;;;1.90;1.07;;;;;;;;;;5073704;28;20032;-84
2023/11/28 10:34:14;;;;;;;4.37;1.70;;;;;;;;;;5075211;28;20028;-84
2023/11/28 10:36:40;;;;;;;2.53;1.70;;;;;;;;;;5073653;28;20031;-85
2023/11/28 10:39:05;;;;;;;3.13;1.57;;;;;;;;;;5073814;28;20531;-84
2023/11/28 10:41:31;;;;;;;4.00;1.70;;;;;;;;;;5074984;28;20016;-85
2023/11/28 10:43:58;;;;;;;1.93;1.03;;;;;;;;;;5073495;28;20021;-84
2023/11/28 10:46:24;;;;;;;4.33;1.30;;;;;;;;;;5073464;28;20024;-84
2023/11/28 10:48:49;;;;;;;2.97;1.10;;;;;;;;;;5073727;28;20073;-84
2023/11/28 10:51:14;;;;;;;4.80;1.27;;;;;;;;;;5070225;28;20040;-84
2023/11/28 10:53:41;;;;;;;2.43;1.23;;;;;;;;;;5072376;28;20111;-84
2023/11/28 10:56:08;;;;;;;3.50;1.70;;;;;;;;;;5073243;28;20678;-84
2023/11/28 10:58:35;;;;;;;3.53;1.40;;;;;;;;;;5072750;28;20025;-85
2023/11/28 11:01:02;;;;;;;2.30;1.13;;;;;;;;;;5072698;28;20024;-84
2023/11/28 11:03:27;;;;;;;2.90;1.00;;;;;;;;;;5072968;28;20021;-84
2023/11/28 11:05:53;;;;;;;2.47;1.10;;;;;;;;;;5072689;28;20036;-84
2023/11/28 11:08:18;;;;;;;3.13;1.33;;;;;;;;;;5071609;28;20133;-85
2023/11/28 11:10:44;;;;;;;3.45;1.58;;;;;;;;;;5072575;28;20478;-84
2023/11/28 11:13:18;;;;;;;2.33;1.20;;;;;;;;;;5071986;28;20024;-84
2023/11/28 11:16:01;;;;;;;6.50;1.17;;;;;;;;;;5066560;28;20067;-84
2023/11/28 11:18:38;;;;;;;1.37;0.93;;;;;;;;;;5072662;28;20064;-84
2023/11/28 11:21:08;;;;;;;2.77;1.67;;;;;;;;;;5062353;28;20483;-84
2023/11/28 11:23:35;;;;;;;2.93;1.37;;;;;;;;;;5071865;28;20426;-83
2023/11/28 11:26:01;;;;;;;1.80;1.17;;;;;;;;;;5072024;28;20026;-83
2023/11/28 11:28:27;;;;;;;2.63;1.13;;;;;;;;;;5078908;28;20107;-84
2023/11/28 11:30:55;;;;;;;2.63;1.37;;;;;;;;;;5076516;28;20047;-84
2023/11/28 11:33:24;;;;;;;4.57;1.40;;;;;;;;;;5063069;28;20115;-84
2023/11/28 11:36:07;;;;;;;2.17;1.10;;;;;;;;;;5071987;28;20384;-84
2023/11/28 11:38:33;;;;;;;2.07;1.20;;;;;;;;;;5071603;28;20039;-84
2023/11/28 11:40:59;;;;;;;2.93;1.20;;;;;;;;;;5071811;28;20021;-83
2023/11/28 11:43:26;;;;;;;3.80;1.33;;;;;;;;;;5072068;28;20106;-84
2023/11/28 11:45:51;;;;;;;3.00;1.40;;;;;;;;;;5071896;28;20357;-84
2023/11/28 11:48:26;;;;;;;3.33;1.70;;;;;;;;;;5071983;28;20040;-84
2023/11/28 11:50:53;;;;;;;2.10;1.33;;;;;;;;;;5072795;28;20356;-83
2023/11/28 11:53:19;;;;;;;3.07;1.17;;;;;;;;;;5073318;28;20456;-84
2023/11/28 11:55:45;;;;;;;2.23;1.20;;;;;;;;;;5071911;28;20181;-84
2023/11/28 11:58:11;;;;;;;1.60;1.10;;;;;;;;;;5071520;28;20115;-84
2023/11/28 12:00:37;;;;;;;3.83;1.23;;;;;;;;;;5071395;28;20020;-84
2023/11/28 12:03:02;;;;;;;2.47;1.20;;;;;;;;;;5071670;28;20029;-84
2023/11/28 12:05:27;;;;;;;4.73;1.77;;;;;;;;;;5071941;28;20020;-84
2023/11/28 12:07:52;;;;;;;3.07;1.10;;;;;;;;;;5071902;28;20103;-84
2023/11/28 12:10:18;;;;;;;2.87;1.10;;;;;;;;;;5071155;28;20012;-84
2023/11/28 12:12:43;;;;;;;3.00;1.00;;;;;;;;;;5070584;28;20032;-84
2023/11/28 12:15:12;;;;;;;1.70;1.02;;;;;;;;;;5071387;28;20361;-85
2023/11/28 12:17:39;;;;;;;3.60;1.40;;;;;;;;;;5058914;28;20483;-84
2023/11/28 12:20:05;;;;;;;3.22;1.38;;;;;;;;;;5087839;28;20107;-85
2023/11/28 12:22:33;;;;;;;2.75;1.42;;;;;;;;;;5071172;28;20099;-84
2023/11/28 12:24:58;;;;;;;1.40;0.95;;;;;;;;;;5071502;28;20028;-84
2023/11/28 12:27:24;;;;;;;2.70;1.48;;;;;;;;;;5070428;28;20376;-85
2023/11/28 12:29:49;;;;;;;1.70;1.20;;;;;;;;;;5070871;28;20134;-85
2023/11/28 12:32:14;;;;;;;2.53;1.25;;;;;;;;;;5071691;28;20028;-85
2023/11/28 12:34:40;;;;;;;2.78;1.00;;;;;;;;;;5071700;28;20124;-84
2023/11/28 12:37:07;;;;;;;1.67;0.90;;;;;;;;;;5071082;28;20107;-84
2023/11/28 12:39:32;;;;;;;2.53;1.20;;;;;;;;;;5071085;28;20024;-83
2023/11/28 12:41:57;;;;;;;2.20;1.10;;;;;;;;;;5071366;28;20032;-85
2023/11/28 12:44:41;;;;;;;2.33;1.00;;;;;;;;;;5070194;28;20016;-84
2023/11/28 12:47:07;;;;;;;1.23;0.82;;;;;;;;;;5076780;28;20024;-84
2023/11/28 12:49:35;;;;;;;2.50;1.20;;;;;;;;;;5070815;28;20131;-85
2023/11/28 12:52:00;;;;;;;1.73;0.90;;;;;;;;;;5070597;28;20027;-83
2023/11/28 12:54:25;;;;;;;2.55;0.80;;;;;;;;;;5069754;28;20060;-84
2023/11/28 12:56:52;;;;;;;1.80;1.10;;;;;;;;;;5070974;28;20030;-85
2023/11/28 12:59:22;;;;;;;2.08;1.00;;;;;;;;;;5062016;28;20475;-84
2023/11/28 13:01:47;;;;;;;1.70;0.80;;;;;;;;;;5070452;28;20052;-84
2023/11/28 13:04:13;;;;;;;1.55;0.80;;;;;;;;;;5077864;28;20063;-84
2023/11/28 13:06:38;;;;;;;1.95;1.10;;;;;;;;;;5072180;28;20036;-83
2023/11/28 13:09:06;;;;;;;4.60;1.20;;;;;;;;;;5064344;28;20107;-83
2023/11/28 13:11:32;;;;;;;2.08;1.23;;;;;;;;;;5089570;28;20044;-83
2023/11/28 13:13:57;;;;;;;3.67;1.52;;;;;;;;;;5070429;28;20433;-84
2023/11/28 13:16:23;;;;;;;1.93;1.17;;;;;;;;;;5062339;28;20113;-84
2023/11/28 13:18:48;;;;;;;2.33;1.40;;;;;;;;;;5067751;28;20035;-84
2023/11/28 13:21:14;;;;;;;1.05;0.82;;;;;;;;;;5067456;28;20036;-84
2023/11/28 13:23:39;;;;;;;4.63;1.10;;;;;;;;;;5067854;28;20013;-84
2023/11/28 13:26:05;;;;;;;2.20;1.20;;;;;;;;;;5068792;28;20112;-84
2023/11/28 13:28:30;;;;;;;2.53;1.50;;;;;;;;;;5071126;28;20021;-85
2023/11/28 13:30:56;;;;;;;4.77;1.10;;;;;;;;;;5072879;28;20028;-85
2023/11/28 13:33:26;;;;;;;2.30;1.33;;;;;;;;;;5101683;28;20021;-85
2023/11/28 13:35:52;;;;;;;4.60;1.30;;;;;;;;;;5074107;28;20063;-85
2023/11/28 13:38:17;;;;;;;3.30;1.43;;;;;;;;;;5075216;28;20031;-85
2023/11/28 13:40:45;;;;;;;5.63;1.30;;;;;;;;;;5075239;28;20025;-85
2023/11/28 13:43:10;;;;;;;4.07;1.43;;;;;;;;;;5075054;28;20020;-85
2023/11/28 13:45:35;;;;;;;2.77;1.53;;;;;;;;;;5076364;28;20017;-85
2023/11/28 13:48:01;;;;;;;2.97;1.30;;;;;;;;;;5086702;28;20120;-84
2023/11/28 13:50:26;;;;;;;2.20;1.30;;;;;;;;;;5075326;28;20024;-85
2023/11/28 13:52:52;;;;;;;4.33;1.47;;;;;;;;;;5073701;28;20035;-85
2023/11/28 13:55:17;;;;;;;2.63;1.50;;;;;;;;;;5074913;28;20020;-84
2023/11/28 13:57:44;;;;;;;2.77;1.33;;;;;;;;;;5074856;28;20487;-84
2023/11/28 14:00:10;;;;;;;3.50;1.37;;;;;;;;;;5074240;28;20051;-84
2023/11/28 14:02:35;;;;;;;2.07;1.30;;;;;;;;;;5087228;28;20024;-86
2023/11/28 14:05:01;;;;;;;5.30;1.70;;;;;;;;;;5094902;28;20020;-83
2023/11/28 14:07:26;;;;;;;2.80;1.57;;;;;;;;;;5082486;28;20070;-83
2023/11/28 14:09:51;;;;;;;3.63;1.33;;;;;;;;;;5074365;28;20029;-85
2023/11/28 14:12:16;;;;;;;3.67;1.47;;;;;;;;;;5083690;28;20020;-84
2023/11/28 14:14:42;;;;;;;5.23;1.87;;;;;;;;;;5094661;28;20028;-85
2023/11/28 14:17:08;;;;;;;4.23;1.70;;;;;;;;;;5086921;28;20383;-85
2023/11/28 14:19:33;;;;;;;3.90;1.43;;;;;;;;;;5075791;28;20021;-85
2023/11/28 14:21:58;;;;;;;3.67;1.20;;;;;;;;;;5074567;28;20384;-85
2023/11/28 14:24:23;;;;;;;3.53;1.30;;;;;;;;;;5074352;28;20017;-84
2023/11/28 14:26:49;;;;;;;5.47;1.67;;;;;;;;;;5074408;28;20024;-84
2023/11/28 14:29:15;;;;;;;3.30;1.57;;;;;;;;;;5074319;28;20024;-84
2023/11/28 14:31:40;;;;;;;3.27;1.60;;;;;;;;;;5074262;28;20021;-84
2023/11/28 14:34:05;;;;;;;2.93;1.67;;;;;;;;;;5074379;28;20527;-84